Falls International Airport
KINL : now visible

Airfield :











YOU CAN JOIN US ON...

 
LOGIN :

Register | Disclaimer

   EN    FR    IT 

 









Legend :    VFR   Marginal VFR   IFR   Intensive IFR   Very Intensive IFR
Visi :
Ceiling :
>= 8 km
>= 3000ft
5 to 8 km
1000 to 3000 ft
1500m to 5 km
500 to 1000 ft
800 to 1500m
200 to 500 ft
< 800m
< 200 ft
Symbols :   Thunderstorms  Fog  Heavy snow  Heavy precipitations  Wind > 20 kt






- Airport Elevation : 1185 ft
- IATA code : INL


KINL - Falls International

CURRENT METAR :
  • 251754Z AUTO 31009KT 9SM -SN FEW028 BKN037 OVC050 M02/M09 A3031 RMK AO2 UPB35E39SNB04E35B39 SLP285 P0001 60001 T10221089 11011 21050 58007

EXPIRED METARs :
  • 251736Z AUTO 28008KT 9SM UP FEW026 BKN035 OVC046 M02/M09 A3031 RMK AO2 UPB35SNB04E35 P0001 T10221089
  • 251720Z AUTO 24005KT 8SM -SN FEW022 BKN029 OVC035 M03/M08 A3032 RMK AO2 SNB04 P0001 T10281078
  • 251654Z AUTO 25006KT 10SM FEW020 SCT029 BKN034 M01/M07 A3032 RMK AO2 SLP288 T10111072
  • 251604Z AUTO 30005KT 10SM BKN017 OVC065 M02/M07 A3033 RMK AO2 T10221067
  • 251554Z AUTO 30005KT 10SM SCT017 OVC065 M03/M07 A3033 RMK AO2 SLP291 T10281072

TAF KINL
Valid from the 25 at 18:00 until the 26 at 18:00 UTC


251739Z 2518/2618 28006KT 6SM -SHSN SCT020 BKN030 OVC035
TEMPO 2518/2520 4SM -SHSN BKN025 OVC030
FM252000 28007KT 6SM -SHSN SCT020 BKN035 OVC040
TEMPO 2520/2522 4SM -SHSN
FM260000 28007KT P6SM VCSH BKN050
KZMP FIR / North America



MET'MAP, your aeronautical weather chart ! - Copyright ORBIFLY December 2007 - Disclaimer

ORBIFLY MET'MAP TEAM :

Programming & Development : Alexandra Zaïnal
Concept & original design : Baudouin d'Aumeries
Assistance for programming : Marc-Olivier Méhu
Technical & hardware support : Manuel Goepfert

Contact : metmap@orbifly.com




SOURCES & CREDITS :

   NOAA       Earth
Advisory